Wolcott, New York
Current Conditions -  °F | °C
As of 9:54 AM on Friday 31 Oct 2014 (Local Time) from KFZY Reporting Station
Overcast Overcast  
Wind Chill: 40°   Ceiling: 6000
Heat Index: 43°   Visibility: 10mi
Dew Point: 38°   Wind: 5mph
Humidity: 82%   Direction: NA
Pressure: 30.01"   Gusts: NA
Location:  43.22°N, 76.81°W
Report Text: KFZY 311354Z AUTO VRB04KT 10SM OVC060 06/03 A3001 RMK AO2 SLP166 T00610033
Loading
Personal Weather Stations






























Interactive Weather Map
Tropical Storm Tracking
New forecast layout! Learn more

10-Day Weather Forecast

Advertisements
Track Severe Weather on mobile